Time;durP1;ratioP1;P1;durP2;ratioP2;P2;SDS_P1;SDS_P2;PMS_P1;PMS_P2;Temp;Humidity;BMP_temperature;BMP_pressure;BME280_temperature;BME280_humidity;BME280_pressure;Samples;Min_cycle;Max_cycle;Signal;HPM_P1;HPM_P2
2022/10/24 00:01:14;;;;;;;0.80;0.80;;;;;;;17.41;45.66;95821.66;5095938;28;20481;-65
2022/10/24 00:03:41;;;;;;;1.33;1.23;;;;;;;17.44;45.29;95820.31;5101465;28;20509;-70
2022/10/24 00:06:10;;;;;;;0.20;0.20;;;;;;;17.35;45.82;95819.31;5104474;28;20441;-66
2022/10/24 00:08:37;;;;;;;1.33;1.23;;;;;;;17.39;44.83;95823.00;5092432;28;20444;-64
2022/10/24 00:11:19;;;;;;;2.63;1.70;;;;;;;17.36;45.62;95818.25;5103010;28;20531;-68
2022/10/24 00:13:45;;;;;;;1.60;1.10;;;;;;;17.16;45.56;95814.66;5105921;28;20472;-61
2022/10/24 00:16:13;;;;;;;1.07;0.83;;;;;;;17.14;45.71;95814.16;5106089;28;20454;-61
2022/10/24 00:18:40;;;;;;;1.03;0.80;;;;;;;17.14;45.96;95816.78;5103011;28;20480;-62
2022/10/24 00:21:07;;;;;;;0.47;0.47;;;;;;;17.10;45.91;95815.75;5105706;28;20486;-60
2022/10/24 00:23:34;;;;;;;0.63;0.63;;;;;;;17.10;46.10;95805.16;5099525;28;20579;-68
2022/10/24 00:26:02;;;;;;;0.47;0.47;;;;;;;17.08;45.90;95817.88;5092243;28;20487;-63
2022/10/24 00:28:34;;;;;;;2.73;1.70;;;;;;;17.09;45.67;95813.38;5092947;28;20548;-67
2022/10/24 00:31:03;;;;;;;0.43;0.43;;;;;;;16.70;46.56;95805.34;5104471;28;20444;-66
2022/10/24 00:33:30;;;;;;;1.33;1.23;;;;;;;16.91;46.27;95798.94;5101648;28;20517;-66
2022/10/24 00:35:57;;;;;;;0.70;0.70;;;;;;;16.95;46.34;95807.13;5102789;28;20958;-65
2022/10/24 00:38:24;;;;;;;0.83;0.70;;;;;;;17.09;46.17;95803.59;5098935;28;20539;-64
2022/10/24 00:40:51;;;;;;;4.07;2.50;;;;;;;16.93;46.30;95804.72;5095013;28;20433;-66
2022/10/24 00:43:23;;;;;;;4.53;1.53;;;;;;;17.04;46.21;95800.94;5092811;28;20540;-66
2022/10/24 00:45:58;;;;;;;1.00;1.00;;;;;;;17.00;45.64;95799.94;5095448;28;20469;-68
2022/10/24 00:48:33;;;;;;;0.70;0.70;;;;;;;17.04;45.71;95795.66;5092064;28;20456;-64
2022/10/24 00:51:07;;;;;;;1.50;1.40;;;;;;;17.02;46.09;95803.06;5100612;28;20445;-64
2022/10/24 00:53:40;;;;;;;3.63;2.67;;;;;;;17.02;45.67;95802.31;5096000;28;20564;-64
2022/10/24 00:56:08;;;;;;;1.17;1.17;;;;;;;16.92;45.44;95805.00;5102212;28;20443;-64
2022/10/24 00:58:36;;;;;;;1.80;1.67;;;;;;;16.86;46.28;95814.03;5100408;28;20457;-64
2022/10/24 01:01:04;;;;;;;2.87;1.43;;;;;;;16.81;46.26;95806.91;5100650;28;20436;-66
2022/10/24 01:03:31;;;;;;;1.20;1.10;;;;;;;16.73;46.29;95810.09;5097597;28;20548;-66
2022/10/24 01:06:32;;;;;;;3.87;2.70;;;;;;;16.83;46.03;95814.56;5103541;28;20559;-63
2022/10/24 01:09:20;;;;;;;2.17;1.97;;;;;;;16.67;46.27;95816.50;5102819;28;20448;-66
2022/10/24 01:11:49;;;;;;;1.70;1.60;;;;;;;16.87;46.09;95818.25;5095749;28;20947;-65
2022/10/24 01:14:31;;;;;;;1.50;1.40;;;;;;;16.62;46.41;95810.44;5100022;28;21024;-69
2022/10/24 01:17:21;;;;;;;3.43;2.67;;;;;;;16.45;46.51;95802.78;5089536;28;20918;-66
2022/10/24 01:20:08;;;;;;;1.97;1.77;;;;;;;16.62;46.64;95808.59;5100526;28;20584;-68
2022/10/24 01:22:38;;;;;;;1.80;1.60;;;;;;;16.71;46.40;95806.97;5098206;28;20966;-68
2022/10/24 01:25:14;;;;;;;2.07;1.60;;;;;;;16.56;46.32;95807.00;5100289;28;20521;-67
2022/10/24 01:27:41;;;;;;;0.30;0.30;;;;;;;16.23;46.48;95810.25;5104093;28;20811;-65
2022/10/24 01:30:11;;;;;;;0.97;0.97;;;;;;;16.31;46.97;95814.19;5100289;28;20453;-66
2022/10/24 01:32:56;;;;;;;1.70;1.03;;;;;;;16.36;46.60;95809.69;5095641;28;20453;-64
2022/10/24 01:35:27;;;;;;;0.50;0.50;;;;;;;16.29;46.64;95809.19;5099613;28;20444;-66
2022/10/24 01:37:59;;;;;;;1.33;1.23;;;;;;;16.29;46.12;95814.47;5101363;28;20455;-63
2022/10/24 01:40:49;;;;;;;0.83;0.77;;;;;;;16.37;46.55;95808.63;5099625;28;20515;-66
2022/10/24 01:43:22;;;;;;;0.97;0.97;;;;;;;16.35;46.07;95802.81;5095393;28;20460;-68
2022/10/24 01:45:59;;;;;;;2.63;1.57;;;;;;;16.31;46.37;95806.25;5098465;28;20551;-66
2022/10/24 01:48:28;;;;;;;0.90;0.90;;;;;;;16.41;46.61;95812.31;5105666;28;20484;-61
2022/10/24 01:50:57;;;;;;;2.33;2.13;;;;;;;16.25;46.13;95808.13;5094298;28;20441;-65
2022/10/24 01:53:25;;;;;;;1.43;1.33;;;;;;;15.89;47.25;95817.19;5092385;28;20562;-67
2022/10/24 01:55:53;;;;;;;1.20;1.10;;;;;;;16.12;46.69;95803.38;5100836;28;20810;-63
2022/10/24 01:58:20;;;;;;;3.30;1.63;;;;;;;16.14;46.30;95811.84;5094712;28;20456;-67
2022/10/24 02:00:49;;;;;;;2.80;2.03;;;;;;;16.09;46.98;95803.94;5094981;28;20442;-67
2022/10/24 02:03:21;;;;;;;2.00;1.80;;;;;;;16.15;46.69;95802.84;5097199;28;20449;-62
2022/10/24 02:05:52;;;;;;;1.87;1.73;;;;;;;16.07;46.88;95796.28;5101499;28;20987;-65
2022/10/24 02:08:26;;;;;;;1.13;1.03;;;;;;;16.01;47.15;95805.25;5098605;28;20448;-65
2022/10/24 02:10:59;;;;;;;1.13;1.10;;;;;;;15.93;47.31;95805.03;5109097;28;20465;-64
2022/10/24 02:13:38;;;;;;;1.60;1.50;;;;;;;16.00;46.61;95816.88;5111033;28;20479;-62
2022/10/24 02:16:05;;;;;;;1.37;1.27;;;;;;;15.83;47.15;95807.66;5105016;28;20447;-65
2022/10/24 02:18:33;;;;;;;1.47;1.30;;;;;;;15.95;47.38;95816.09;5104161;28;20440;-64
2022/10/24 02:21:14;;;;;;;3.53;1.83;;;;;;;16.07;46.38;95814.78;5103182;28;20449;-64
2022/10/24 02:23:49;;;;;;;1.73;1.53;;;;;;;15.91;46.60;95812.44;5106041;28;20437;-64
2022/10/24 02:27:00;;;;;;;1.03;1.00;;;;;;;16.08;46.40;95807.63;5092569;28;20444;-62
2022/10/24 02:29:46;;;;;;;1.40;1.30;;;;;;;16.03;46.94;95810.28;5084810;28;20451;-66
2022/10/24 02:32:18;;;;;;;1.17;1.07;;;;;;;15.93;47.39;95818.25;5107363;28;20440;-67
2022/10/24 02:34:46;;;;;;;1.27;1.17;;;;;;;15.84;46.68;95822.44;5098775;27;20484;-65
2022/10/24 02:37:16;;;;;;;1.03;1.03;;;;;;;15.89;46.90;95815.31;5102307;28;21029;-64
2022/10/24 02:39:46;;;;;;;1.20;1.20;;;;;;;15.88;46.67;95812.94;5103327;28;20546;-66
2022/10/24 02:42:15;;;;;;;2.60;1.60;;;;;;;15.96;47.40;95810.56;5094677;28;20449;-68
2022/10/24 02:44:45;;;;;;;2.57;2.10;;;;;;;15.98;47.35;95812.94;5101666;28;20445;-69
2022/10/24 02:47:13;;;;;;;3.80;1.40;;;;;;;16.04;46.92;95812.66;5111564;28;20471;-67
2022/10/24 02:49:42;;;;;;;2.23;1.90;;;;;;;15.98;47.30;95807.66;5098349;28;20535;-64
2022/10/24 02:52:09;;;;;;;5.17;2.00;;;;;;;16.03;47.23;95807.63;5105197;28;20477;-66
2022/10/24 02:54:35;;;;;;;2.30;1.07;;;;;;;15.96;47.41;95802.63;5107512;28;21040;-67
2022/10/24 02:57:03;;;;;;;0.50;0.50;;;;;;;15.87;47.31;95809.53;5103864;28;20432;-66
2022/10/24 02:59:30;;;;;;;0.67;0.67;;;;;;;15.87;47.58;95812.16;5108453;28;20966;-68
2022/10/24 03:01:57;;;;;;;1.87;1.77;;;;;;;15.87;47.75;95811.38;5096268;28;20540;-64
2022/10/24 03:04:24;;;;;;;1.33;1.17;;;;;;;15.87;47.67;95803.44;5093452;28;20502;-66
2022/10/24 03:06:52;;;;;;;5.60;2.30;;;;;;;15.73;47.24;95805.03;5098881;28;20542;-63
2022/10/24 03:09:18;;;;;;;0.93;0.93;;;;;;;15.79;47.06;95811.88;5108359;28;20448;-66
2022/10/24 03:11:45;;;;;;;2.40;1.70;;;;;;;15.75;47.66;95808.19;5090831;28;20584;-63
2022/10/24 03:14:12;;;;;;;3.10;1.70;;;;;;;15.87;47.04;95800.78;5103171;28;21036;-69
2022/10/24 03:16:39;;;;;;;3.40;2.33;;;;;;;15.79;47.14;95803.97;5099302;28;20436;-65
2022/10/24 03:19:06;;;;;;;0.63;0.63;;;;;;;15.78;47.41;95800.50;5101527;28;20802;-64
2022/10/24 03:21:32;;;;;;;11.10;2.73;;;;;;;15.85;47.50;95808.19;5091987;28;20437;-63
2022/10/24 03:23:59;;;;;;;1.23;1.13;;;;;;;15.77;47.60;95811.34;5102755;28;20467;-67
2022/10/24 03:26:26;;;;;;;0.47;0.47;;;;;;;15.57;47.52;95795.50;5094869;28;20446;-65
2022/10/24 03:28:53;;;;;;;0.60;0.60;;;;;;;15.40;48.66;95798.38;5112708;28;20446;-62
2022/10/24 03:31:20;;;;;;;0.77;0.60;;;;;;;15.52;48.34;95806.06;5111828;28;20472;-65
2022/10/24 03:33:46;;;;;;;0.53;0.53;;;;;;;15.49;48.16;95801.34;5102201;28;20503;-66
2022/10/24 03:36:13;;;;;;;1.37;1.27;;;;;;;15.65;48.03;95797.63;5094873;28;20446;-66
2022/10/24 03:38:40;;;;;;;0.57;0.57;;;;;;;15.50;47.64;95789.69;5096382;28;20453;-68
2022/10/24 03:41:08;;;;;;;1.17;1.17;;;;;;;15.41;48.47;95809.75;5097180;28;20825;-65
2022/10/24 03:43:35;;;;;;;0.97;0.93;;;;;;;15.19;49.26;95804.69;5110883;28;20947;-65
2022/10/24 03:46:01;;;;;;;1.00;1.00;;;;;;;15.47;48.98;95806.09;5103889;28;21015;-64
2022/10/24 03:48:28;;;;;;;0.87;0.87;;;;;;;15.55;48.03;95808.19;5093372;28;20510;-64
2022/10/24 03:50:55;;;;;;;0.37;0.37;;;;;;;15.61;47.66;95807.13;5097279;27;20552;-65
2022/10/24 03:53:22;;;;;;;7.63;2.57;;;;;;;15.56;47.84;95813.22;5108933;28;20447;-64
2022/10/24 03:55:49;;;;;;;0.53;0.53;;;;;;;15.56;47.86;95809.78;5099401;28;20440;-64
2022/10/24 03:58:16;;;;;;;1.33;1.13;;;;;;;15.33;48.02;95805.00;5105338;28;20445;-63
2022/10/24 04:00:43;;;;;;;2.47;1.07;;;;;;;15.42;47.48;95804.22;5100525;28;20443;-63
2022/10/24 04:03:09;;;;;;;0.30;0.30;;;;;;;15.39;47.71;95802.09;5097880;28;20843;-67
2022/10/24 04:05:36;;;;;;;0.83;0.40;;;;;;;15.39;47.86;95796.00;5106448;28;20501;-64
2022/10/24 04:08:08;;;;;;;0.70;0.70;;;;;;;15.47;47.73;95803.44;5091872;28;20445;-64
2022/10/24 04:10:35;;;;;;;0.60;0.60;;;;;;;15.34;48.57;95793.38;5096772;28;20472;-64
2022/10/24 04:13:02;;;;;;;1.03;0.93;;;;;;;15.46;47.73;95783.34;5103870;28;20451;-66
2022/10/24 04:15:30;;;;;;;1.10;0.90;;;;;;;15.39;47.75;95798.63;5109957;28;20475;-67
2022/10/24 04:17:56;;;;;;;1.33;1.23;;;;;;;15.38;47.74;95797.06;5091753;28;20540;-63
2022/10/24 04:20:23;;;;;;;2.33;2.13;;;;;;;15.49;47.00;95788.13;5090279;28;20445;-62
2022/10/24 04:22:50;;;;;;;0.77;0.77;;;;;;;15.43;47.54;95794.44;5102991;28;20526;-64
2022/10/24 04:25:17;;;;;;;2.07;1.47;;;;;;;15.37;48.04;95795.47;5108337;28;20527;-63
2022/10/24 04:27:44;;;;;;;1.50;1.30;;;;;;;15.36;47.95;95799.19;5096236;28;20440;-66
2022/10/24 04:30:13;;;;;;;0.53;0.53;;;;;;;15.49;48.17;95803.97;5108246;27;21180;-62
2022/10/24 04:32:43;;;;;;;0.30;0.30;;;;;;;15.46;47.02;95804.47;5092979;28;20530;-70
2022/10/24 04:35:12;;;;;;;3.00;2.80;;;;;;;15.37;47.98;95795.47;5092781;27;20534;-65
2022/10/24 04:37:39;;;;;;;1.47;1.37;;;;;;;15.31;48.30;95797.31;5087440;28;20445;-67
2022/10/24 04:40:06;;;;;;;2.73;1.87;;;;;;;15.35;47.72;95808.13;5090477;28;20536;-65
2022/10/24 04:42:33;;;;;;;1.07;0.67;;;;;;;15.22;47.75;95804.97;5089136;28;20502;-64
2022/10/24 04:45:00;;;;;;;32.90;4.23;;;;;;;15.11;48.64;95803.34;5088313;27;20429;-66
2022/10/24 04:47:27;;;;;;;2.73;2.40;;;;;;;15.17;48.09;95801.53;5087258;28;20475;-68
2022/10/24 04:49:54;;;;;;;5.10;4.33;;;;;;;15.36;48.76;95810.53;5090385;27;20947;-60
2022/10/24 04:52:21;;;;;;;6.00;4.37;;;;;;;14.83;51.32;95816.22;5097792;28;20441;-62
2022/10/24 04:54:47;;;;;;;5.27;2.43;;;;;;;14.95;50.80;95814.94;5101705;28;20492;-66
2022/10/24 04:57:14;;;;;;;5.70;2.27;;;;;;;15.10;49.52;95824.75;5103433;28;20520;-62
2022/10/24 04:59:41;;;;;;;1.03;1.03;;;;;;;15.32;48.92;95821.88;5095904;28;20429;-65
2022/10/24 05:02:08;;;;;;;0.93;0.93;;;;;;;15.13;49.40;95821.56;5092506;28;21217;-61
2022/10/24 05:04:35;;;;;;;2.27;2.07;;;;;;;14.79;50.82;95823.06;5096110;28;20862;-64
2022/10/24 05:07:01;;;;;;;3.43;2.67;;;;;;;14.54;50.97;95818.50;5094519;28;20440;-63
2022/10/24 05:09:28;;;;;;;6.03;3.13;;;;;;;15.35;49.48;95797.56;5091202;28;20455;-60
2022/10/24 05:11:55;;;;;;;15.63;6.13;;;;;;;15.56;48.05;95817.72;5099353;28;20441;-60
2022/10/24 05:14:23;;;;;;;11.10;4.40;;;;;;;15.63;47.62;95831.44;5102498;28;20490;-62
2022/10/24 05:16:49;;;;;;;2.77;2.00;;;;;;;15.74;47.39;95825.09;5096662;28;20526;-61
2022/10/24 05:19:17;;;;;;;2.77;2.50;;;;;;;15.55;47.91;95826.69;5095362;28;20452;-60
2022/10/24 05:21:44;;;;;;;4.27;2.77;;;;;;;15.44;47.36;95822.47;5109186;28;20432;-60
2022/10/24 05:24:10;;;;;;;3.40;3.10;;;;;;;15.47;47.75;95824.56;5097119;28;20463;-61
2022/10/24 05:26:37;;;;;;;1.60;1.50;;;;;;;15.45;47.67;95818.75;5093031;28;20479;-61
2022/10/24 05:29:04;;;;;;;1.70;0.80;;;;;;;15.28;47.76;95826.88;5098657;28;20521;-60
2022/10/24 05:31:36;;;;;;;4.13;3.73;;;;;;;15.49;46.92;95825.09;5107179;28;20859;-60
2022/10/24 05:34:03;;;;;;;1.67;1.57;;;;;;;15.41;47.96;95829.06;5092509;28;20598;-61
2022/10/24 05:36:30;;;;;;;2.50;2.30;;;;;;;15.36;47.69;95825.59;5096507;28;20798;-60
2022/10/24 05:38:56;;;;;;;1.63;1.53;;;;;;;15.49;48.06;95809.25;5103354;27;20436;-62
2022/10/24 05:41:23;;;;;;;6.13;3.50;;;;;;;15.54;47.98;95833.03;5100958;28;20480;-60
2022/10/24 05:43:50;;;;;;;1.30;1.20;;;;;;;15.66;47.38;95830.91;5104495;28;20451;-61
2022/10/24 05:46:17;;;;;;;2.50;2.30;;;;;;;15.62;47.41;95824.59;5096193;28;20524;-61
2022/10/24 05:48:43;;;;;;;2.40;1.80;;;;;;;15.75;47.17;95829.31;5111355;28;20468;-60
2022/10/24 05:51:11;;;;;;;4.37;2.53;;;;;;;15.72;47.58;95827.22;5101976;28;20480;-60
2022/10/24 05:53:38;;;;;;;5.50;2.90;;;;;;;15.92;46.74;95835.94;5091843;28;20481;-63
2022/10/24 05:56:05;;;;;;;2.33;2.13;;;;;;;15.77;47.41;95841.22;5105131;28;20480;-60
2022/10/24 05:58:33;;;;;;;2.63;2.43;;;;;;;15.87;47.61;95832.50;5092651;28;20445;-59
2022/10/24 06:01:00;;;;;;;4.80;3.00;;;;;;;15.68;47.23;95840.16;5112162;28;20527;-60
2022/10/24 06:03:27;;;;;;;1.70;1.60;;;;;;;16.02;47.49;95851.00;5100534;27;20433;-62
2022/10/24 06:05:54;;;;;;;4.63;4.23;;;;;;;16.13;46.75;95842.78;5110082;28;20420;-60
2022/10/24 06:08:20;;;;;;;2.67;2.47;;;;;;;16.02;46.97;95854.44;5102212;28;20506;-59
2022/10/24 06:10:49;;;;;;;6.77;2.80;;;;;;;16.07;47.41;95856.28;5090661;28;20449;-60
2022/10/24 06:13:17;;;;;;;2.03;1.87;;;;;;;16.27;46.89;95853.63;5100731;28;20447;-60
2022/10/24 06:15:44;;;;;;;3.33;3.03;;;;;;;16.48;46.01;95851.72;5097940;28;21007;-64
2022/10/24 06:18:11;;;;;;;8.00;3.87;;;;;;;15.87;47.90;95857.09;5105313;28;20860;-60
2022/10/24 06:20:38;;;;;;;5.50;3.73;;;;;;;15.51;48.37;95854.69;5104741;28;20533;-60
2022/10/24 06:23:05;;;;;;;3.40;1.43;;;;;;;15.09;49.44;95852.97;5091755;28;20520;-60
2022/10/24 06:25:31;;;;;;;31.33;3.10;;;;;;;15.29;48.91;95856.75;5091817;28;20445;-60
2022/10/24 06:27:59;;;;;;;1.47;1.37;;;;;;;15.76;48.25;95852.06;5109782;28;20551;-60
2022/10/24 06:30:26;;;;;;;0.70;0.70;;;;;;;15.84;47.93;95859.44;5112249;28;20432;-61
2022/10/24 06:32:53;;;;;;;2.33;2.17;;;;;;;16.17;47.53;95869.47;5111620;28;20444;-60
2022/10/24 06:35:20;;;;;;;1.47;1.37;;;;;;;15.81;48.21;95865.28;5103795;28;20480;-61
2022/10/24 06:37:47;;;;;;;8.70;2.97;;;;;;;15.66;48.26;95867.91;5091738;28;20536;-62
2022/10/24 06:40:16;;;;;;;2.30;1.83;;;;;;;15.69;48.76;95864.75;5105389;27;20538;-60
2022/10/24 06:42:43;;;;;;;4.27;2.93;;;;;;;15.61;49.14;95862.63;5096062;28;20981;-59
2022/10/24 06:45:11;;;;;;;2.83;2.53;;;;;;;15.87;49.60;95874.81;5100845;28;20535;-59
2022/10/24 06:47:38;;;;;;;1.13;1.13;;;;;;;15.94;49.71;95880.59;5093585;28;20479;-60
2022/10/24 06:50:05;;;;;;;0.50;0.50;;;;;;;16.11;48.54;95854.69;5101735;28;20511;-60
2022/10/24 06:52:32;;;;;;;1.70;1.50;;;;;;;16.41;48.22;95875.81;5096491;28;20444;-59
2022/10/24 06:54:59;;;;;;;4.07;2.07;;;;;;;16.69;47.38;95877.09;5098891;28;20588;-60
2022/10/24 06:57:26;;;;;;;1.13;1.10;;;;;;;17.22;45.64;95876.34;5094623;28;20440;-61
2022/10/24 06:59:52;;;;;;;7.40;3.33;;;;;;;17.22;45.93;95871.81;5111316;28;21235;-61
2022/10/24 07:02:19;;;;;;;2.00;1.90;;;;;;;17.76;44.79;95881.59;5110973;28;20440;-61
2022/10/24 07:04:46;;;;;;;2.67;2.43;;;;;;;17.84;44.48;95862.47;5102626;28;20502;-60
2022/10/24 07:07:15;;;;;;;1.80;0.93;;;;;;;17.47;45.33;95860.34;5091640;28;20948;-61
2022/10/24 07:09:42;;;;;;;1.77;1.67;;;;;;;17.35;46.03;95848.47;5104727;28;20462;-60
2022/10/24 07:12:09;;;;;;;1.33;1.23;;;;;;;17.50;45.55;95866.97;5090357;28;20503;-60
2022/10/24 07:14:36;;;;;;;0.70;0.70;;;;;;;17.66;44.92;95865.78;5104430;28;20896;-59
2022/10/24 07:17:04;;;;;;;6.10;2.87;;;;;;;17.96;44.67;95863.69;5102347;28;20444;-60
2022/10/24 07:19:31;;;;;;;0.60;0.60;;;;;;;17.69;46.25;95873.97;5105118;28;20532;-60
2022/10/24 07:22:03;;;;;;;2.57;1.67;;;;;;;18.13;45.09;95860.63;5101564;28;20435;-59
2022/10/24 07:24:30;;;;;;;1.13;1.07;;;;;;;17.99;45.88;95857.06;5096612;28;20865;-60
2022/10/24 07:26:57;;;;;;;1.90;1.80;;;;;;;17.95;45.95;95856.03;5110805;28;20440;-61
2022/10/24 07:29:24;;;;;;;2.27;2.17;;;;;;;17.62;46.56;95852.28;5096559;28;21063;-60
2022/10/24 07:31:51;;;;;;;2.10;2.00;;;;;;;17.87;46.08;95856.59;5110391;28;20440;-59
2022/10/24 07:34:19;;;;;;;1.70;1.40;;;;;;;18.57;45.06;95858.66;5095771;28;20433;-59
2022/10/24 07:36:45;;;;;;;3.13;1.43;;;;;;;18.76;44.82;95864.00;5095819;28;20436;-59
2022/10/24 07:39:12;;;;;;;1.97;1.83;;;;;;;19.26;43.68;95846.66;5097983;28;21034;-61
2022/10/24 07:41:40;;;;;;;0.83;0.63;;;;;;;19.48;43.00;95854.88;5098417;28;20449;-60
2022/10/24 07:44:09;;;;;;;1.97;1.80;;;;;;;19.23;43.59;95853.34;5106368;28;20437;-61
2022/10/24 07:46:36;;;;;;;1.40;1.30;;;;;;;18.76;43.62;95859.47;5109847;28;20504;-60
2022/10/24 07:49:03;;;;;;;1.03;1.03;;;;;;;19.81;42.34;95864.50;5109219;28;20881;-61
2022/10/24 07:51:30;;;;;;;2.60;2.40;;;;;;;19.61;42.81;95854.16;5089156;28;20469;-62
2022/10/24 07:53:57;;;;;;;4.13;2.73;;;;;;;19.69;41.86;95850.88;5103681;28;20578;-59
2022/10/24 07:56:25;;;;;;;1.43;1.33;;;;;;;19.41;42.73;95854.44;5098974;28;21063;-60
2022/10/24 07:58:52;;;;;;;2.03;1.90;;;;;;;18.71;44.35;95846.28;5095174;28;20461;-60
2022/10/24 08:01:22;;;;;;;1.93;1.80;;;;;;;19.21;43.03;95850.94;5109823;28;20450;-61
2022/10/24 08:03:50;;;;;;;2.83;2.63;;;;;;;19.33;42.77;95852.44;5108852;28;20451;-59
2022/10/24 08:06:19;;;;;;;2.67;2.10;;;;;;;19.68;41.88;95846.59;5089222;28;20486;-61
2022/10/24 08:08:45;;;;;;;1.20;1.10;;;;;;;19.87;41.51;95837.53;5088036;28;20437;-61
2022/10/24 08:11:15;;;;;;;3.27;2.67;;;;;;;20.08;40.67;95838.78;5089009;28;20434;-60
2022/10/24 08:13:42;;;;;;;1.47;1.40;;;;;;;20.39;39.69;95833.75;5089413;28;20452;-61
2022/10/24 08:16:11;;;;;;;2.43;2.03;;;;;;;20.99;39.15;95843.25;5107298;28;21085;-60
2022/10/24 08:18:38;;;;;;;1.43;1.33;;;;;;;20.12;41.34;95839.78;5109650;28;20462;-60
2022/10/24 08:21:12;;;;;;;0.67;0.67;;;;;;;20.65;40.69;95831.41;5106097;28;21181;-60
2022/10/24 08:23:42;;;;;;;1.27;1.20;;;;;;;21.24;39.00;95825.16;5099260;28;20447;-60
2022/10/24 08:26:14;;;;;;;2.47;1.87;;;;;;;20.33;40.70;95837.56;5109370;28;20536;-60
2022/10/24 08:28:42;;;;;;;1.57;1.47;;;;;;;20.81;39.33;95830.81;5099997;28;20441;-61
2022/10/24 08:31:15;;;;;;;3.83;3.07;;;;;;;21.42;38.71;95819.69;5105014;28;20436;-61
2022/10/24 08:33:43;;;;;;;3.50;1.27;;;;;;;21.25;38.70;95818.75;5108886;28;20953;-60
2022/10/24 08:36:15;;;;;;;6.13;2.13;;;;;;;20.98;39.91;95830.22;5094475;28;20483;-60
2022/10/24 08:38:42;;;;;;;1.83;1.70;;;;;;;20.80;39.70;95818.56;5101160;28;20532;-61
2022/10/24 08:41:26;;;;;;;1.40;1.30;;;;;;;21.07;39.28;95813.25;5088755;28;20441;-61
2022/10/24 08:43:55;;;;;;;2.90;2.67;;;;;;;21.46;39.37;95814.56;5088793;28;20445;-59
2022/10/24 08:46:43;;;;;;;1.40;1.37;;;;;;;22.54;37.78;95805.19;5095031;28;20530;-61
2022/10/24 08:49:22;;;;;;;30.57;3.13;;;;;;;22.05;38.92;95806.22;5108493;28;20286;-60
2022/10/24 08:52:30;;;;;;;0.60;0.60;;;;;;;22.41;37.25;95795.41;5094524;28;20532;-60
2022/10/24 08:55:01;;;;;;;1.97;1.47;;;;;;;22.49;37.45;95795.44;5088176;28;20526;-61
2022/10/24 08:57:33;;;;;;;1.17;1.17;;;;;;;22.43;37.48;95791.31;5107990;28;20547;-60
2022/10/24 09:00:14;;;;;;;0.93;0.93;;;;;;;22.54;36.49;95787.28;5097343;28;20552;-61
2022/10/24 09:02:44;;;;;;;1.43;1.07;;;;;;;21.82;38.19;95792.06;5088224;28;20445;-60
2022/10/24 09:05:26;;;;;;;1.10;1.03;;;;;;;22.15;38.20;95784.59;5087200;28;20218;-61
2022/10/24 09:08:00;;;;;;;1.67;1.40;;;;;;;23.66;35.19;95780.28;5087867;28;20575;-60
2022/10/24 09:10:47;;;;;;;1.13;1.10;;;;;;;22.19;37.50;95774.88;5088557;28;20285;-61
2022/10/24 09:13:16;;;;;;;1.50;1.37;;;;;;;22.82;36.57;95777.97;5088213;28;20742;-60
2022/10/24 09:15:44;;;;;;;1.80;1.40;;;;;;;23.30;35.56;95777.94;5103412;28;20236;-61
2022/10/24 09:18:23;;;;;;;0.50;0.50;;;;;;;22.98;36.76;95775.66;5101881;28;20219;-60
2022/10/24 09:20:52;;;;;;;0.93;0.93;;;;;;;22.89;36.29;95764.94;5102792;28;20186;-59
2022/10/24 09:23:22;;;;;;;1.83;1.23;;;;;;;23.99;35.11;95767.94;5096009;28;20728;-60
2022/10/24 09:25:52;;;;;;;1.60;1.10;;;;;;;23.95;35.67;95767.00;5109233;28;20267;-59
2022/10/24 09:28:19;;;;;;;0.50;0.50;;;;;;;23.71;35.75;95761.38;5102638;28;20648;-60
2022/10/24 09:30:47;;;;;;;0.73;0.73;;;;;;;24.24;34.30;95764.44;5088843;28;20554;-60
2022/10/24 09:33:29;;;;;;;4.70;2.20;;;;;;;23.55;35.38;95768.31;5102738;28;20205;-60
2022/10/24 09:35:59;;;;;;;0.40;0.40;;;;;;;24.65;34.25;95759.22;5101990;28;20202;-61
2022/10/24 09:38:37;;;;;;;0.90;0.90;;;;;;;24.24;34.40;95756.41;5108429;28;20232;-60
2022/10/24 09:41:14;;;;;;;1.77;1.53;;;;;;;24.45;33.45;95753.81;5094900;28;20223;-61
2022/10/24 09:43:45;;;;;;;0.83;0.60;;;;;;;23.79;35.60;95752.56;5101305;28;20243;-59
2022/10/24 09:46:15;;;;;;;0.67;0.67;;;;;;;23.39;35.95;95748.50;5093759;28;20593;-60
2022/10/24 09:48:53;;;;;;;0.53;0.53;;;;;;;23.89;35.52;95746.84;5108999;28;20277;-61
2022/10/24 09:51:25;;;;;;;1.40;0.83;;;;;;;24.19;34.84;95750.44;5098361;28;20745;-61
2022/10/24 09:54:19;;;;;;;1.50;0.90;;;;;;;23.99;34.76;95744.66;5102807;28;20221;-61
2022/10/24 09:56:57;;;;;;;0.97;0.90;;;;;;;24.33;34.71;95749.13;5101343;28;20218;-61
2022/10/24 09:59:57;;;;;;;1.50;0.67;;;;;;;25.13;33.73;95736.59;5108947;28;20191;-59
2022/10/24 10:02:35;;;;;;;0.53;0.53;;;;;;;24.38;33.89;95748.94;5095868;28;20683;-60
2022/10/24 10:05:02;;;;;;;0.60;0.60;;;;;;;25.15;33.82;95735.13;5108740;28;20225;-60
2022/10/24 10:07:33;;;;;;;0.53;0.53;;;;;;;25.16;33.40;95731.34;5090998;28;20282;-61
2022/10/24 10:10:05;;;;;;;1.17;0.63;;;;;;;25.63;33.13;95723.88;5097977;28;20215;-61
2022/10/24 10:12:36;;;;;;;0.40;0.40;;;;;;;25.51;33.03;95721.91;5091054;28;20187;-60
2022/10/24 10:15:17;;;;;;;0.53;0.53;;;;;;;24.77;34.16;95719.16;5097832;28;20260;-61
2022/10/24 10:17:50;;;;;;;1.07;1.00;;;;;;;25.48;33.00;95717.22;5111907;28;20187;-61
2022/10/24 10:20:39;;;;;;;0.60;0.60;;;;;;;25.76;32.45;95717.44;5101740;28;20281;-61
2022/10/24 10:23:32;;;;;;;1.80;1.17;;;;;;;25.61;32.65;95710.00;5105765;28;20198;-61
2022/10/24 10:26:09;;;;;;;0.27;0.27;;;;;;;25.83;32.65;95712.31;5107157;28;20255;-62
2022/10/24 10:28:55;;;;;;;0.43;0.43;;;;;;;25.49;33.19;95707.28;5112096;28;20194;-61
2022/10/24 10:31:27;;;;;;;0.67;0.67;;;;;;;25.61;32.44;95710.00;5111954;28;20740;-62
2022/10/24 10:34:06;;;;;;;0.60;0.60;;;;;;;25.88;31.92;95709.41;5101797;28;20211;-62
2022/10/24 10:36:38;;;;;;;0.40;0.40;;;;;;;26.04;31.70;95691.56;5095657;28;20325;-61
2022/10/24 10:39:23;;;;;;;0.97;0.93;;;;;;;25.49;32.91;95693.88;5111982;28;20209;-61
2022/10/24 10:41:50;;;;;;;0.57;0.57;;;;;;;25.42;32.67;95682.88;5100285;28;20195;-61
2022/10/24 10:44:34;;;;;;;1.40;1.10;;;;;;;25.55;32.42;95684.47;5095081;28;20282;-61
2022/10/24 10:47:25;;;;;;;0.47;0.47;;;;;;;25.88;32.71;95680.66;5111906;27;20257;-61
2022/10/24 10:49:57;;;;;;;0.50;0.50;;;;;;;25.73;32.67;95680.53;5091744;28;20195;-62
2022/10/24 10:52:30;;;;;;;2.10;1.57;;;;;;;26.29;31.85;95669.00;5095706;28;20661;-61
2022/10/24 10:55:36;;;;;;;0.80;0.80;;;;;;;26.47;31.54;95673.00;5111999;28;20390;-61
2022/10/24 10:58:11;;;;;;;0.97;0.97;;;;;;;26.36;31.88;95665.72;5100414;28;20191;-61
2022/10/24 11:01:12;;;;;;;1.07;1.07;;;;;;;26.49;31.07;95653.84;5108991;28;20198;-61
2022/10/24 11:03:42;;;;;;;4.87;1.57;;;;;;;26.73;31.14;95664.63;5091670;28;20206;-62
2022/10/24 11:06:15;;;;;;;0.93;0.93;;;;;;;26.45;31.85;95658.34;5097318;28;20230;-62
2022/10/24 11:09:19;;;;;;;1.17;1.07;;;;;;;26.56;32.00;95654.06;5111330;28;20280;-62
2022/10/24 11:11:54;;;;;;;1.83;1.43;;;;;;;27.01;30.79;95650.09;5101216;28;20198;-61
2022/10/24 11:14:29;;;;;;;0.60;0.60;;;;;;;27.24;30.41;95646.88;5111576;27;20568;-61
2022/10/24 11:17:26;;;;;;;0.53;0.53;;;;;;;27.45;30.46;95642.09;5111546;28;20234;-62
2022/10/24 11:20:20;;;;;;;0.50;0.50;;;;;;;27.66;29.94;95637.28;5079672;28;20277;-61
2022/10/24 11:22:59;;;;;;;3.73;0.93;;;;;;;27.50;29.61;95633.78;5108220;28;20206;-62
2022/10/24 11:25:29;;;;;;;4.23;1.27;;;;;;;27.52;30.13;95634.19;5101641;28;20702;-62
2022/10/24 11:28:05;;;;;;;0.30;0.30;;;;;;;27.24;29.75;95630.72;5110048;28;20222;-62
2022/10/24 11:30:44;;;;;;;1.67;1.50;;;;;;;27.45;30.07;95628.63;5111549;28;20231;-62
2022/10/24 11:33:17;;;;;;;1.80;1.17;;;;;;;27.98;29.81;95625.41;5106658;28;20195;-62
2022/10/24 11:36:15;;;;;;;0.40;0.40;;;;;;;27.53;30.08;95619.63;5090645;28;20203;-61
2022/10/24 11:38:52;;;;;;;3.27;1.00;;;;;;;27.98;30.01;95612.75;5098275;28;20259;-61
2022/10/24 11:41:50;;;;;;;1.53;0.83;;;;;;;27.95;29.70;95604.56;5103542;28;20306;-62
2022/10/24 11:44:39;;;;;;;6.27;2.37;;;;;;;27.80;29.30;95600.72;5104557;28;20191;-61
2022/10/24 11:47:23;;;;;;;1.57;1.47;;;;;;;28.35;28.49;95597.06;5102918;28;20233;-61
2022/10/24 11:50:16;;;;;;;1.90;1.80;;;;;;;28.71;28.88;95596.72;5104114;28;20204;-62
2022/10/24 11:52:57;;;;;;;3.13;1.07;;;;;;;28.42;28.64;95597.22;5098333;28;20186;-62
2022/10/24 11:55:37;;;;;;;0.60;0.60;;;;;;;29.13;27.76;95585.25;5110431;28;20198;-61